Figari Sud-Corse Airport

Airport
ICAO code: 
LFKF
IATA Code: 
FSC
Summary
ICAO Region: 
EUR
Territory: 
Location: 
, Corse
Serving: 
Figari
Elevation: 
87 ft
Coordinates: 
Aerial View: 
41° 30' 2.005" N, 9° 5' 51.997" E
Metar
Observation
LFKF 302100Z AUTO 26010KT 230V300 9999 BKN041 11/05 Q1020 NOSIG
Station
Figari
Date/Time
2021-11-30 21:00:00
Wind direction
260°
Wind speed
10 kts
Lowest cloud amount
broken clouds
Temperature
11°C
Dew point
5°C
Humidity
66%
QNH
1020 hPa
Weather condition
n/a

Description

International airport serving Ajaccio south and central Corsica.

Climatology

Dry-summer subtropical ”Mediterranean" climate (Köppen climate classification Csa) - characterized by hot, dry summers and mild winters. During the summer, subtropical high pressure cells dominate, making rainfall unlikely except for the occasional thunderstorm. In the winter, periodic storms bring rain (snow at higher elevations).

Runways

Designator Length Width Surface Rops
5/23 2480 45 ASP Yes/Yes
Airport map: 
Aerial View: 

SKYbrary Partners:

Safety knowledge contributed by: